sensor_id;sensor_type;location;lat;lon;timestamp;pressure;altitude;pressure_sealevel;temperature;humidity
68656;BME280;55638;51.122;13.606;2023-02-10T00:00:55;101895.41;;;-3.29;52.52
68656;BME280;55638;51.122;13.606;2023-02-10T00:02:28;101906.84;;;-3.30;52.51
68656;BME280;55638;51.122;13.606;2023-02-10T00:04:01;101895.44;;;-3.30;52.64
68656;BME280;55638;51.122;13.606;2023-02-10T00:05:33;101901.56;;;-3.30;52.67
68656;BME280;55638;51.122;13.606;2023-02-10T00:07:05;101899.81;;;-3.29;52.77
68656;BME280;55638;51.122;13.606;2023-02-10T00:08:36;101901.56;;;-3.28;52.73
68656;BME280;55638;51.122;13.606;2023-02-10T00:10:08;101901.59;;;-3.27;52.83
68656;BME280;55638;51.122;13.606;2023-02-10T00:11:40;101894.53;;;-3.26;52.74
68656;BME280;55638;51.122;13.606;2023-02-10T00:13:32;101896.31;;;-3.24;52.90
68656;BME280;55638;51.122;13.606;2023-02-10T00:15:05;101903.34;;;-3.21;52.79
68656;BME280;55638;51.122;13.606;2023-02-10T00:16:37;101903.34;;;-3.20;52.69
68656;BME280;55638;51.122;13.606;2023-02-10T00:18:09;101896.31;;;-3.19;52.90
68656;BME280;55638;51.122;13.606;2023-02-10T00:19:41;101898.97;;;-3.18;52.62
68656;BME280;55638;51.122;13.606;2023-02-10T00:21:15;101896.31;;;-3.16;52.76
68656;BME280;55638;51.122;13.606;2023-02-10T00:22:47;101896.31;;;-3.16;52.70
68656;BME280;55638;51.122;13.606;2023-02-10T00:24:20;101892.78;;;-3.15;52.56
68656;BME280;55638;51.122;13.606;2023-02-10T00:25:53;101895.41;;;-3.15;52.49
68656;BME280;55638;51.122;13.606;2023-02-10T00:27:25;101901.59;;;-3.15;52.53
68656;BME280;55638;51.122;13.606;2023-02-10T00:28:59;101893.69;;;-3.15;52.77
68656;BME280;55638;51.122;13.606;2023-02-10T00:30:31;101901.59;;;-3.15;52.54
68656;BME280;55638;51.122;13.606;2023-02-10T00:32:03;101891.03;;;-3.13;52.74
68656;BME280;55638;51.122;13.606;2023-02-10T00:33:35;101898.94;;;-3.13;52.75
68656;BME280;55638;51.122;13.606;2023-02-10T00:35:07;101894.56;;;-3.11;52.62
68656;BME280;55638;51.122;13.606;2023-02-10T00:36:39;101903.34;;;-3.12;52.77
68656;BME280;55638;51.122;13.606;2023-02-10T00:38:11;101904.22;;;-3.10;52.57
68656;BME280;55638;51.122;13.606;2023-02-10T00:39:43;101906.88;;;-3.11;52.70
68656;BME280;55638;51.122;13.606;2023-02-10T00:41:18;101907.75;;;-3.11;52.65
68656;BME280;55638;51.122;13.606;2023-02-10T00:42:50;101907.75;;;-3.09;52.79
68656;BME280;55638;51.122;13.606;2023-02-10T00:44:22;101911.25;;;-3.09;52.69
68656;BME280;55638;51.122;13.606;2023-02-10T00:45:54;101913.91;;;-3.10;52.50
68656;BME280;55638;51.122;13.606;2023-02-10T00:47:26;101910.38;;;-3.09;52.45
68656;BME280;55638;51.122;13.606;2023-02-10T00:48:58;101916.53;;;-3.09;52.69
68656;BME280;55638;51.122;13.606;2023-02-10T00:50:29;101920.94;;;-3.08;52.52
68656;BME280;55638;51.122;13.606;2023-02-10T00:52:01;101912.13;;;-3.08;52.63
68656;BME280;55638;51.122;13.606;2023-02-10T00:53:34;101913.91;;;-3.09;52.61
68656;BME280;55638;51.122;13.606;2023-02-10T00:55:06;101918.31;;;-3.08;52.60
68656;BME280;55638;51.122;13.606;2023-02-10T00:56:39;101919.19;;;-3.07;52.61
68656;BME280;55638;51.122;13.606;2023-02-10T00:58:11;101920.97;;;-3.05;52.75
68656;BME280;55638;51.122;13.606;2023-02-10T00:59:43;101913.91;;;-3.04;52.67
68656;BME280;55638;51.122;13.606;2023-02-10T01:01:15;101922.69;;;-3.05;52.70
68656;BME280;55638;51.122;13.606;2023-02-10T01:02:47;101918.31;;;-3.05;52.59
68656;BME280;55638;51.122;13.606;2023-02-10T01:04:19;101919.16;;;-3.06;52.50
68656;BME280;55638;51.122;13.606;2023-02-10T01:05:51;101913.91;;;-3.04;52.52
68656;BME280;55638;51.122;13.606;2023-02-10T01:07:23;101918.31;;;-3.05;52.62
68656;BME280;55638;51.122;13.606;2023-02-10T01:08:55;101912.13;;;-3.05;52.56
68656;BME280;55638;51.122;13.606;2023-02-10T01:10:27;101920.94;;;-3.06;52.52
68656;BME280;55638;51.122;13.606;2023-02-10T01:11:59;101916.53;;;-3.06;52.51
68656;BME280;55638;51.122;13.606;2023-02-10T01:13:31;101920.94;;;-3.08;52.32
68656;BME280;55638;51.122;13.606;2023-02-10T01:15:05;101924.47;;;-3.07;52.32
68656;BME280;55638;51.122;13.606;2023-02-10T01:16:38;101920.03;;;-3.08;52.35
68656;BME280;55638;51.122;13.606;2023-02-10T01:18:12;101932.38;;;-3.10;52.41
68656;BME280;55638;51.122;13.606;2023-02-10T01:19:44;101929.72;;;-3.14;52.22
68656;BME280;55638;51.122;13.606;2023-02-10T01:21:19;101935.00;;;-3.14;52.48
68656;BME280;55638;51.122;13.606;2023-02-10T01:22:51;101935.91;;;-3.15;52.38
68656;BME280;55638;51.122;13.606;2023-02-10T01:24:23;101937.63;;;-3.15;52.55
68656;BME280;55638;51.122;13.606;2023-02-10T01:25:59;101945.56;;;-3.17;52.51
68656;BME280;55638;51.122;13.606;2023-02-10T01:27:31;101935.88;;;-3.16;52.62
68656;BME280;55638;51.122;13.606;2023-02-10T01:29:03;101936.75;;;-3.19;52.45
68656;BME280;55638;51.122;13.606;2023-02-10T01:30:35;101935.00;;;-3.20;52.69
68656;BME280;55638;51.122;13.606;2023-02-10T01:32:07;101933.25;;;-3.18;52.76
68656;BME280;55638;51.122;13.606;2023-02-10T01:33:39;101932.34;;;-3.20;52.70
68656;BME280;55638;51.122;13.606;2023-02-10T01:35:11;101930.63;;;-3.18;52.67
68656;BME280;55638;51.122;13.606;2023-02-10T01:36:43;101927.97;;;-3.18;52.73
68656;BME280;55638;51.122;13.606;2023-02-10T01:38:15;101933.25;;;-3.18;52.60
68656;BME280;55638;51.122;13.606;2023-02-10T01:39:46;101921.81;;;-3.17;52.71
68656;BME280;55638;51.122;13.606;2023-02-10T01:41:21;101932.34;;;-3.20;52.38
68656;BME280;55638;51.122;13.606;2023-02-10T01:42:53;101928.81;;;-3.19;52.76
68656;BME280;55638;51.122;13.606;2023-02-10T01:45:57;101927.06;;;-3.15;52.84
68656;BME280;55638;51.122;13.606;2023-02-10T01:47:31;101927.09;;;-3.17;52.68
68656;BME280;55638;51.122;13.606;2023-02-10T01:49:15;101933.25;;;-3.18;52.31
68656;BME280;55638;51.122;13.606;2023-02-10T01:50:52;101930.59;;;-3.16;52.57
68656;BME280;55638;51.122;13.606;2023-02-10T01:52:25;101931.47;;;-3.16;52.64
68656;BME280;55638;51.122;13.606;2023-02-10T01:54:02;101931.47;;;-3.16;52.55
68656;BME280;55638;51.122;13.606;2023-02-10T01:55:36;101930.63;;;-3.18;52.73
68656;BME280;55638;51.122;13.606;2023-02-10T01:57:11;101935.88;;;-3.16;52.73
68656;BME280;55638;51.122;13.606;2023-02-10T01:58:43;101932.38;;;-3.17;52.70
68656;BME280;55638;51.122;13.606;2023-02-10T02:00:16;101930.63;;;-3.18;52.59
68656;BME280;55638;51.122;13.606;2023-02-10T02:01:49;101931.47;;;-3.20;52.45
68656;BME280;55638;51.122;13.606;2023-02-10T02:03:21;101932.34;;;-3.20;52.66
68656;BME280;55638;51.122;13.606;2023-02-10T02:05:00;101930.59;;;-3.21;52.42
68656;BME280;55638;51.122;13.606;2023-02-10T02:06:33;101928.81;;;-3.22;52.69
68656;BME280;55638;51.122;13.606;2023-02-10T02:08:23;101932.34;;;-3.23;52.59
68656;BME280;55638;51.122;13.606;2023-02-10T02:09:57;101932.34;;;-3.20;52.77
68656;BME280;55638;51.122;13.606;2023-02-10T02:11:47;101930.59;;;-3.24;52.71
68656;BME280;55638;51.122;13.606;2023-02-10T02:13:40;101934.13;;;-3.23;52.57
68656;BME280;55638;51.122;13.606;2023-02-10T02:17:10;101936.72;;;-3.25;52.53
68656;BME280;55638;51.122;13.606;2023-02-10T02:29:11;101938.53;;;-3.15;53.19
68656;BME280;55638;51.122;13.606;2023-02-10T02:34:35;101946.47;;;-2.98;53.10
68656;BME280;55638;51.122;13.606;2023-02-10T02:36:13;101942.94;;;-2.91;53.64
68656;BME280;55638;51.122;13.606;2023-02-10T02:37:47;101936.78;;;-2.85;53.76
68656;BME280;55638;51.122;13.606;2023-02-10T02:39:21;101941.16;;;-2.79;53.43
68656;BME280;55638;51.122;13.606;2023-02-10T02:40:53;101942.94;;;-2.71;53.52
68656;BME280;55638;51.122;13.606;2023-02-10T02:42:29;101937.66;;;-2.66;53.58
68656;BME280;55638;51.122;13.606;2023-02-10T02:44:04;101942.03;;;-2.57;53.63
68656;BME280;55638;51.122;13.606;2023-02-10T02:45:55;101939.41;;;-2.50;52.90
68656;BME280;55638;51.122;13.606;2023-02-10T02:47:54;101933.22;;;-2.43;53.10
68656;BME280;55638;51.122;13.606;2023-02-10T02:49:37;101928.81;;;-2.36;52.65
68656;BME280;55638;51.122;13.606;2023-02-10T02:51:35;101930.53;;;-2.27;52.93
68656;BME280;55638;51.122;13.606;2023-02-10T02:55:06;101931.38;;;-2.11;53.01
68656;BME280;55638;51.122;13.606;2023-02-10T02:56:52;101926.09;;;-2.07;52.24
68656;BME280;55638;51.122;13.606;2023-02-10T03:00:10;101931.31;;;-1.93;52.89
68656;BME280;55638;51.122;13.606;2023-02-10T03:01:59;101931.31;;;-1.91;51.70
68656;BME280;55638;51.122;13.606;2023-02-10T03:03:35;101928.63;;;-1.85;52.61
68656;BME280;55638;51.122;13.606;2023-02-10T03:05:10;101936.56;;;-1.81;52.69
68656;BME280;55638;51.122;13.606;2023-02-10T03:06:42;101937.44;;;-1.77;53.00
68656;BME280;55638;51.122;13.606;2023-02-10T03:08:13;101935.66;;;-1.74;52.81
68656;BME280;55638;51.122;13.606;2023-02-10T03:09:45;101936.53;;;-1.72;52.97
68656;BME280;55638;51.122;13.606;2023-02-10T03:11:17;101927.66;;;-1.66;52.97
68656;BME280;55638;51.122;13.606;2023-02-10T03:12:49;101933.81;;;-1.62;52.82
68656;BME280;55638;51.122;13.606;2023-02-10T03:14:22;101932.06;;;-1.59;52.68
68656;BME280;55638;51.122;13.606;2023-02-10T03:15:54;101934.66;;;-1.54;52.69
68656;BME280;55638;51.122;13.606;2023-02-10T03:17:26;101933.75;;;-1.49;52.80
68656;BME280;55638;51.122;13.606;2023-02-10T03:18:58;101923.16;;;-1.44;52.71
68656;BME280;55638;51.122;13.606;2023-02-10T03:20:29;101926.66;;;-1.42;52.73
68656;BME280;55638;51.122;13.606;2023-02-10T03:22:01;101920.47;;;-1.38;52.35
68656;BME280;55638;51.122;13.606;2023-02-10T03:23:33;101930.16;;;-1.35;52.56
68656;BME280;55638;51.122;13.606;2023-02-10T03:25:05;101933.63;;;-1.30;52.53
68656;BME280;55638;51.122;13.606;2023-02-10T03:26:37;101930.06;;;-1.25;52.56
68656;BME280;55638;51.122;13.606;2023-02-10T03:28:09;101932.72;;;-1.21;52.50
68656;BME280;55638;51.122;13.606;2023-02-10T03:29:43;101937.97;;;-1.18;52.62
68656;BME280;55638;51.122;13.606;2023-02-10T03:31:15;101939.72;;;-1.16;52.15
68656;BME280;55638;51.122;13.606;2023-02-10T03:32:47;101932.63;;;-1.14;52.03
68656;BME280;55638;51.122;13.606;2023-02-10T03:34:20;101939.69;;;-1.10;52.16
68656;BME280;55638;51.122;13.606;2023-02-10T03:35:52;101941.41;;;-1.07;52.32
68656;BME280;55638;51.122;13.606;2023-02-10T03:37:28;101938.75;;;-1.04;52.00
68656;BME280;55638;51.122;13.606;2023-02-10T03:39:01;101931.66;;;-1.01;52.17
68656;BME280;55638;51.122;13.606;2023-02-10T03:40:33;101941.34;;;-0.98;52.10
68656;BME280;55638;51.122;13.606;2023-02-10T03:42:05;101936.94;;;-0.97;52.14
68656;BME280;55638;51.122;13.606;2023-02-10T03:43:38;101937.78;;;-0.94;51.92
68656;BME280;55638;51.122;13.606;2023-02-10T03:45:10;101944.84;;;-0.93;52.11
68656;BME280;55638;51.122;13.606;2023-02-10T03:46:42;101944.84;;;-0.90;51.87
68656;BME280;55638;51.122;13.606;2023-02-10T03:48:14;101948.31;;;-0.88;52.16
68656;BME280;55638;51.122;13.606;2023-02-10T03:49:47;101955.41;;;-0.87;52.01
68656;BME280;55638;51.122;13.606;2023-02-10T03:51:19;101942.16;;;-0.84;52.30
68656;BME280;55638;51.122;13.606;2023-02-10T03:52:50;101942.13;;;-0.82;52.09
68656;BME280;55638;51.122;13.606;2023-02-10T03:54:22;101940.34;;;-0.82;51.88
68656;BME280;55638;51.122;13.606;2023-02-10T03:55:54;101946.50;;;-0.78;52.06
68656;BME280;55638;51.122;13.606;2023-02-10T03:57:26;101951.78;;;-0.76;52.14
68656;BME280;55638;51.122;13.606;2023-02-10T03:59:02;101964.13;;;-0.74;50.45
68656;BME280;55638;51.122;13.606;2023-02-10T04:00:34;101964.06;;;-0.69;51.87
68656;BME280;55638;51.122;13.606;2023-02-10T04:02:06;101961.44;;;-0.69;51.75
68656;BME280;55638;51.122;13.606;2023-02-10T04:03:38;101965.81;;;-0.68;51.80
68656;BME280;55638;51.122;13.606;2023-02-10T04:05:10;101970.22;;;-0.66;51.73
68656;BME280;55638;51.122;13.606;2023-02-10T04:06:42;101968.47;;;-0.64;51.71
68656;BME280;55638;51.122;13.606;2023-02-10T04:08:15;101979.03;;;-0.62;51.81
68656;BME280;55638;51.122;13.606;2023-02-10T04:09:47;101979.91;;;-0.60;51.87
68656;BME280;55638;51.122;13.606;2023-02-10T04:11:19;101979.00;;;-0.58;51.98
68656;BME280;55638;51.122;13.606;2023-02-10T04:12:51;101978.97;;;-0.56;51.98
68656;BME280;55638;51.122;13.606;2023-02-10T04:14:23;101970.13;;;-0.55;51.61
68656;BME280;55638;51.122;13.606;2023-02-10T04:16:09;101972.78;;;-0.55;51.34
68656;BME280;55638;51.122;13.606;2023-02-10T04:17:42;101968.34;;;-0.51;51.81
68656;BME280;55638;51.122;13.606;2023-02-10T04:19:13;101968.34;;;-0.51;51.74
68656;BME280;55638;51.122;13.606;2023-02-10T04:20:45;101965.72;;;-0.51;51.69
68656;BME280;55638;51.122;13.606;2023-02-10T04:22:17;101970.09;;;-0.50;51.74
68656;BME280;55638;51.122;13.606;2023-02-10T04:23:49;101970.09;;;-0.50;51.81
68656;BME280;55638;51.122;13.606;2023-02-10T04:25:20;101972.72;;;-0.49;51.73
68656;BME280;55638;51.122;13.606;2023-02-10T04:26:53;101981.53;;;-0.47;51.95
68656;BME280;55638;51.122;13.606;2023-02-10T04:28:25;101986.84;;;-0.47;51.58
68656;BME280;55638;51.122;13.606;2023-02-10T04:29:58;101986.84;;;-0.47;51.96
68656;BME280;55638;51.122;13.606;2023-02-10T04:31:29;101997.41;;;-0.45;51.67
68656;BME280;55638;51.122;13.606;2023-02-10T04:33:01;101992.16;;;-0.47;51.86
68656;BME280;55638;51.122;13.606;2023-02-10T04:34:34;101987.72;;;-0.45;51.89
68656;BME280;55638;51.122;13.606;2023-02-10T04:36:07;101995.66;;;-0.45;51.92
68656;BME280;55638;51.122;13.606;2023-02-10T04:37:39;101987.72;;;-0.46;51.74
68656;BME280;55638;51.122;13.606;2023-02-10T04:39:11;101988.59;;;-0.46;51.77
68656;BME280;55638;51.122;13.606;2023-02-10T04:40:42;101989.47;;;-0.45;52.08
68656;BME280;55638;51.122;13.606;2023-02-10T04:42:14;101997.41;;;-0.45;52.04
68656;BME280;55638;51.122;13.606;2023-02-10T04:43:46;102000.97;;;-0.45;51.99
68656;BME280;55638;51.122;13.606;2023-02-10T04:45:18;102002.72;;;-0.44;51.98
68656;BME280;55638;51.122;13.606;2023-02-10T04:46:50;102006.28;;;-0.45;52.16
68656;BME280;55638;51.122;13.606;2023-02-10T04:48:22;102007.13;;;-0.44;51.94
68656;BME280;55638;51.122;13.606;2023-02-10T04:49:54;102003.63;;;-0.45;52.23
68656;BME280;55638;51.122;13.606;2023-02-10T04:51:26;102008.00;;;-0.45;52.15
68656;BME280;55638;51.122;13.606;2023-02-10T04:52:58;102011.53;;;-0.43;52.08
68656;BME280;55638;51.122;13.606;2023-02-10T04:54:30;102005.38;;;-0.45;52.31
68656;BME280;55638;51.122;13.606;2023-02-10T04:56:02;101999.19;;;-0.46;52.32
68656;BME280;55638;51.122;13.606;2023-02-10T04:57:35;102001.84;;;-0.46;52.38
68656;BME280;55638;51.122;13.606;2023-02-10T04:59:06;101996.53;;;-0.46;52.51
68656;BME280;55638;51.122;13.606;2023-02-10T05:00:38;101997.41;;;-0.45;52.50
68656;BME280;55638;51.122;13.606;2023-02-10T05:02:10;101999.19;;;-0.44;52.52
68656;BME280;55638;51.122;13.606;2023-02-10T05:03:42;102001.84;;;-0.44;52.58
68656;BME280;55638;51.122;13.606;2023-02-10T05:05:14;101998.31;;;-0.45;52.36
68656;BME280;55638;51.122;13.606;2023-02-10T05:06:46;102002.72;;;-0.45;52.41
68656;BME280;55638;51.122;13.606;2023-02-10T05:08:18;102008.91;;;-0.45;52.55
68656;BME280;55638;51.122;13.606;2023-02-10T05:09:51;102002.72;;;-0.45;52.56
68656;BME280;55638;51.122;13.606;2023-02-10T05:11:23;102000.06;;;-0.45;52.35
68656;BME280;55638;51.122;13.606;2023-02-10T05:12:55;102008.00;;;-0.44;52.52
68656;BME280;55638;51.122;13.606;2023-02-10T05:14:27;102008.00;;;-0.44;52.60
68656;BME280;55638;51.122;13.606;2023-02-10T05:15:59;102007.13;;;-0.43;52.48
68656;BME280;55638;51.122;13.606;2023-02-10T05:17:31;102004.47;;;-0.43;52.64
68656;BME280;55638;51.122;13.606;2023-02-10T05:19:02;102004.47;;;-0.43;52.40
68656;BME280;55638;51.122;13.606;2023-02-10T05:20:34;102008.88;;;-0.43;52.58
68656;BME280;55638;51.122;13.606;2023-02-10T05:22:06;102007.13;;;-0.41;52.54
68656;BME280;55638;51.122;13.606;2023-02-10T05:23:39;102015.94;;;-0.42;52.64
68656;BME280;55638;51.122;13.606;2023-02-10T05:25:11;102020.38;;;-0.43;52.59
68656;BME280;55638;51.122;13.606;2023-02-10T05:26:43;102017.72;;;-0.43;52.70
68656;BME280;55638;51.122;13.606;2023-02-10T05:28:15;102023.91;;;-0.44;52.76
68656;BME280;55638;51.122;13.606;2023-02-10T05:29:46;102023.88;;;-0.42;52.89
68656;BME280;55638;51.122;13.606;2023-02-10T05:31:19;102030.09;;;-0.43;52.86
68656;BME280;55638;51.122;13.606;2023-02-10T05:32:51;102024.78;;;-0.42;53.03
68656;BME280;55638;51.122;13.606;2023-02-10T05:34:23;102026.53;;;-0.41;52.96
68656;BME280;55638;51.122;13.606;2023-02-10T05:35:55;102028.31;;;-0.41;52.88
68656;BME280;55638;51.122;13.606;2023-02-10T05:37:27;102025.63;;;-0.40;52.97
68656;BME280;55638;51.122;13.606;2023-02-10T05:38:58;102030.06;;;-0.40;52.94
68656;BME280;55638;51.122;13.606;2023-02-10T05:40:49;102027.41;;;-0.40;52.97
68656;BME280;55638;51.122;13.606;2023-02-10T05:42:21;102028.28;;;-0.40;52.91
68656;BME280;55638;51.122;13.606;2023-02-10T05:43:52;102037.13;;;-0.39;52.96
68656;BME280;55638;51.122;13.606;2023-02-10T05:45:24;102032.72;;;-0.40;53.15
68656;BME280;55638;51.122;13.606;2023-02-10T05:46:56;102030.91;;;-0.35;52.95
68656;BME280;55638;51.122;13.606;2023-02-10T05:48:28;102037.09;;;-0.36;52.90
68656;BME280;55638;51.122;13.606;2023-02-10T05:49:59;102034.47;;;-0.38;53.03
68656;BME280;55638;51.122;13.606;2023-02-10T05:51:31;102029.16;;;-0.38;53.24
68656;BME280;55638;51.122;13.606;2023-02-10T05:53:03;102032.69;;;-0.37;53.11
68656;BME280;55638;51.122;13.606;2023-02-10T05:54:35;102042.41;;;-0.38;52.99
68656;BME280;55638;51.122;13.606;2023-02-10T05:56:07;102037.97;;;-0.36;53.15
68656;BME280;55638;51.122;13.606;2023-02-10T05:57:38;102039.72;;;-0.36;53.31
68656;BME280;55638;51.122;13.606;2023-02-10T05:59:11;102037.09;;;-0.35;53.24
68656;BME280;55638;51.122;13.606;2023-02-10T06:00:46;102042.41;;;-0.35;53.26
68656;BME280;55638;51.122;13.606;2023-02-10T06:02:18;102045.00;;;-0.33;53.39
68656;BME280;55638;51.122;13.606;2023-02-10T06:03:49;102043.22;;;-0.33;53.34
68656;BME280;55638;51.122;13.606;2023-02-10T06:05:21;102048.53;;;-0.33;53.32
68656;BME280;55638;51.122;13.606;2023-02-10T06:06:53;102057.41;;;-0.32;53.42
68656;BME280;55638;51.122;13.606;2023-02-10T06:08:24;102060.00;;;-0.31;53.13
68656;BME280;55638;51.122;13.606;2023-02-10T06:09:57;102064.41;;;-0.29;53.57
68656;BME280;55638;51.122;13.606;2023-02-10T06:11:29;102067.06;;;-0.29;53.53
68656;BME280;55638;51.122;13.606;2023-02-10T06:13:01;102066.19;;;-0.28;53.51
68656;BME280;55638;51.122;13.606;2023-02-10T06:14:32;102061.75;;;-0.29;53.50
68656;BME280;55638;51.122;13.606;2023-02-10T06:16:05;102064.38;;;-0.26;53.58
68656;BME280;55638;51.122;13.606;2023-02-10T06:17:37;102055.56;;;-0.27;53.53
68656;BME280;55638;51.122;13.606;2023-02-10T06:19:10;102062.63;;;-0.27;53.58
68656;BME280;55638;51.122;13.606;2023-02-10T06:20:44;102064.41;;;-0.25;53.74
68656;BME280;55638;51.122;13.606;2023-02-10T06:22:17;102063.53;;;-0.25;53.79
68656;BME280;55638;51.122;13.606;2023-02-10T06:23:49;102054.66;;;-0.24;53.74
68656;BME280;55638;51.122;13.606;2023-02-10T06:25:21;102059.97;;;-0.24;53.62
68656;BME280;55638;51.122;13.606;2023-02-10T06:26:53;102052.88;;;-0.24;53.82
68656;BME280;55638;51.122;13.606;2023-02-10T06:28:25;102052.88;;;-0.24;53.75
68656;BME280;55638;51.122;13.606;2023-02-10T06:29:57;102057.28;;;-0.23;53.97
68656;BME280;55638;51.122;13.606;2023-02-10T06:31:29;102056.41;;;-0.22;53.94
68656;BME280;55638;51.122;13.606;2023-02-10T06:33:01;102054.63;;;-0.20;53.76
68656;BME280;55638;51.122;13.606;2023-02-10T06:34:33;102068.75;;;-0.19;53.84
68656;BME280;55638;51.122;13.606;2023-02-10T06:36:06;102060.78;;;-0.19;53.79
68656;BME280;55638;51.122;13.606;2023-02-10T06:37:40;102064.31;;;-0.17;54.06
68656;BME280;55638;51.122;13.606;2023-02-10T06:39:11;102067.84;;;-0.17;54.07
68656;BME280;55638;51.122;13.606;2023-02-10T06:40:43;102068.72;;;-0.16;53.80
68656;BME280;55638;51.122;13.606;2023-02-10T06:42:15;102077.56;;;-0.16;54.04
68656;BME280;55638;51.122;13.606;2023-02-10T06:43:47;102073.13;;;-0.12;54.20
68656;BME280;55638;51.122;13.606;2023-02-10T06:45:19;102084.59;;;-0.13;53.99
68656;BME280;55638;51.122;13.606;2023-02-10T06:46:50;102087.25;;;-0.12;54.03
68656;BME280;55638;51.122;13.606;2023-02-10T06:48:22;102083.69;;;-0.11;54.29
68656;BME280;55638;51.122;13.606;2023-02-10T06:49:54;102077.50;;;-0.08;54.13
68656;BME280;55638;51.122;13.606;2023-02-10T06:51:26;102082.78;;;-0.08;54.19
68656;BME280;55638;51.122;13.606;2023-02-10T06:52:57;102081.00;;;-0.08;54.13
68656;BME280;55638;51.122;13.606;2023-02-10T06:54:29;102094.28;;;-0.06;53.99
68656;BME280;55638;51.122;13.606;2023-02-10T06:56:01;102100.47;;;-0.05;54.15
68656;BME280;55638;51.122;13.606;2023-02-10T06:57:35;102104.81;;;-0.03;54.20
68656;BME280;55638;51.122;13.606;2023-02-10T06:59:07;102108.34;;;-0.01;54.08
68656;BME280;55638;51.122;13.606;2023-02-10T07:00:38;102110.13;;;-0.01;54.27
68656;BME280;55638;51.122;13.606;2023-02-10T07:02:11;102112.75;;;0.00;54.31
68656;BME280;55638;51.122;13.606;2023-02-10T07:03:43;102106.59;;;0.01;54.32
68656;BME280;55638;51.122;13.606;2023-02-10T07:05:15;102113.59;;;0.05;54.26
68656;BME280;55638;51.122;13.606;2023-02-10T07:06:47;102105.66;;;0.05;54.25
68656;BME280;55638;51.122;13.606;2023-02-10T07:08:19;102113.56;;;0.07;54.53
68656;BME280;55638;51.122;13.606;2023-02-10T07:09:51;102112.72;;;0.08;54.26
68656;BME280;55638;51.122;13.606;2023-02-10T07:11:24;102109.19;;;0.07;54.26
68656;BME280;55638;51.122;13.606;2023-02-10T07:12:56;102113.56;;;0.10;54.19
68656;BME280;55638;51.122;13.606;2023-02-10T07:14:28;102117.09;;;0.10;54.59
68656;BME280;55638;51.122;13.606;2023-02-10T07:16:01;102117.09;;;0.13;54.46
68656;BME280;55638;51.122;13.606;2023-02-10T07:17:33;102111.78;;;0.13;54.45
68656;BME280;55638;51.122;13.606;2023-02-10T07:19:05;102120.59;;;0.15;54.24
68656;BME280;55638;51.122;13.606;2023-02-10T07:20:37;102123.25;;;0.17;54.49
68656;BME280;55638;51.122;13.606;2023-02-10T07:22:09;102136.47;;;0.20;54.48
68656;BME280;55638;51.122;13.606;2023-02-10T07:23:40;102132.91;;;0.20;54.52
68656;BME280;55638;51.122;13.606;2023-02-10T07:25:13;102137.34;;;0.21;54.44
68656;BME280;55638;51.122;13.606;2023-02-10T07:26:45;102134.66;;;0.22;54.53
68656;BME280;55638;51.122;13.606;2023-02-10T07:28:17;102131.09;;;0.25;54.44
68656;BME280;55638;51.122;13.606;2023-02-10T07:29:49;102125.81;;;0.25;54.35
68656;BME280;55638;51.122;13.606;2023-02-10T07:31:21;102122.25;;;0.26;54.31
68656;BME280;55638;51.122;13.606;2023-02-10T07:32:53;102116.03;;;0.28;54.43
68656;BME280;55638;51.122;13.606;2023-02-10T07:34:25;102113.38;;;0.30;54.33
68656;BME280;55638;51.122;13.606;2023-02-10T07:36:01;102108.09;;;0.30;54.20
68656;BME280;55638;51.122;13.606;2023-02-10T07:37:33;102099.19;;;0.34;54.51
68656;BME280;55638;51.122;13.606;2023-02-10T07:39:05;102104.50;;;0.34;54.69
68656;BME280;55638;51.122;13.606;2023-02-10T07:40:37;102108.00;;;0.36;54.68
68656;BME280;55638;51.122;13.606;2023-02-10T07:42:12;102124.78;;;0.38;54.68
68656;BME280;55638;51.122;13.606;2023-02-10T07:44:04;102119.44;;;0.41;54.57
68656;BME280;55638;51.122;13.606;2023-02-10T07:45:36;102122.06;;;0.44;54.83
68656;BME280;55638;51.122;13.606;2023-02-10T07:47:10;102127.34;;;0.47;54.72
68656;BME280;55638;51.122;13.606;2023-02-10T07:48:41;102125.53;;;0.51;54.57
68656;BME280;55638;51.122;13.606;2023-02-10T07:50:13;102121.09;;;0.53;54.59
68656;BME280;55638;51.122;13.606;2023-02-10T07:51:45;102121.09;;;0.53;54.69
68656;BME280;55638;51.122;13.606;2023-02-10T07:53:18;102121.94;;;0.56;54.56
68656;BME280;55638;51.122;13.606;2023-02-10T07:54:50;102125.44;;;0.58;54.72
68656;BME280;55638;51.122;13.606;2023-02-10T07:56:22;102134.28;;;0.60;54.69
68656;BME280;55638;51.122;13.606;2023-02-10T07:57:54;102122.75;;;0.63;54.68
68656;BME280;55638;51.122;13.606;2023-02-10T07:59:25;102126.25;;;0.65;54.74
68656;BME280;55638;51.122;13.606;2023-02-10T08:00:57;102123.56;;;0.70;54.83
68656;BME280;55638;51.122;13.606;2023-02-10T08:02:29;102149.16;;;0.74;54.50
68656;BME280;55638;51.122;13.606;2023-02-10T08:04:01;102145.63;;;0.76;54.45
68656;BME280;55638;51.122;13.606;2023-02-10T08:05:35;102149.09;;;0.78;54.68
68656;BME280;55638;51.122;13.606;2023-02-10T08:07:07;102138.47;;;0.80;54.60
68656;BME280;55638;51.122;13.606;2023-02-10T08:08:38;102142.84;;;0.84;54.59
68656;BME280;55638;51.122;13.606;2023-02-10T08:10:10;102145.47;;;0.87;54.53
68656;BME280;55638;51.122;13.606;2023-02-10T08:11:42;102146.38;;;0.86;54.38
68656;BME280;55638;51.122;13.606;2023-02-10T08:13:14;102154.28;;;0.91;54.55
68656;BME280;55638;51.122;13.606;2023-02-10T08:14:45;102146.31;;;0.92;54.65
68656;BME280;55638;51.122;13.606;2023-02-10T08:16:17;102146.31;;;0.94;54.54
68656;BME280;55638;51.122;13.606;2023-02-10T08:17:49;102142.75;;;0.96;54.42
68656;BME280;55638;51.122;13.606;2023-02-10T08:19:21;102149.81;;;0.99;54.49
68656;BME280;55638;51.122;13.606;2023-02-10T08:20:53;102133.84;;;1.00;54.44
68656;BME280;55638;51.122;13.606;2023-02-10T08:22:25;102125.00;;;1.01;54.51
68656;BME280;55638;51.122;13.606;2023-02-10T08:23:56;102124.03;;;1.04;54.68